Time,TemperatureF,DewpointF,PressureIn,WindDirection,WindDirectionDegrees,WindSpeedMPH,WindSpeedGustMPH,Humidity,HourlyPrecipIn,Conditions,Clouds,dailyrainin,SolarRadiationWatts/m^2,SoftwareType,DateUTC
2013-08-01 00:00:00,63.1,61.3,29.74,SE,132,0.0,0.0,94,0.00,,,0.15,0.00,VWS V14.01,2013-08-01 04:00:00,
2013-08-01 00:01:00,63.1,61.3,29.73,SE,132,0.0,0.0,94,0.00,,,0.15,0.00,VWS V14.01,2013-08-01 04:01:00,
2013-08-01 00:02:00,63.1,61.3,29.73,SE,132,0.0,0.0,94,0.00,,,0.00,0.00,VWS V14.01,2013-08-01 04:02:00,
2013-08-01 00:07:00,63.1,61.3,29.73,SE,132,0.0,0.0,94,0.00,,-RA,0.00,0.00,VWS V14.01,2013-08-01 04:07:00,
2013-08-01 00:12:00,63.1,61.7,29.73,SE,132,0.0,0.0,95,0.00,,-RA,0.00,0.00,VWS V14.01,2013-08-01 04:12:00,
2013-08-01 00:17:00,63.1,61.7,29.73,SE,132,0.0,0.0,95,0.00,,-RA,0.00,0.00,VWS V14.01,2013-08-01 04:17:00,
2013-08-01 00:22:00,63.1,61.7,29.73,SE,132,0.0,0.0,95,0.00,,-RA,0.00,0.00,VWS V14.01,2013-08-01 04:22:00,
2013-08-01 00:27:00,63.1,61.7,29.73,SE,132,0.0,0.0,95,0.00,,-RA,0.00,0.00,VWS V14.01,2013-08-01 04:27:00,
2013-08-01 00:30:00,63.1,61.3,29.74,SE,132,0.0,0.0,94,0.00,,OVC041,0.15,0.00,VWS V14.01,2013-08-01 04:30:00,
2013-08-01 00:32:00,63.1,61.7,29.74,SE,132,0.0,0.0,95,0.00,,-RA,0.00,0.00,VWS V14.01,2013-08-01 04:32:00,
2013-08-01 00:37:00,63.1,61.7,29.74,SE,132,0.0,0.0,95,0.00,,-RA,0.00,0.00,VWS V14.01,2013-08-01 04:37:00,
2013-08-01 00:42:00,63.2,61.8,29.74,SE,132,0.0,0.0,95,0.00,,-RA,0.00,0.00,VWS V14.01,2013-08-01 04:42:00,
2013-08-01 00:47:00,63.2,61.8,29.73,SE,132,0.0,0.0,95,0.00,,-RA,0.00,0.00,VWS V14.01,2013-08-01 04:47:00,
2013-08-01 00:52:00,63.2,61.8,29.73,SE,132,0.0,0.0,95,0.00,,-RA,0.00,0.00,VWS V14.01,2013-08-01 04:52:00,
2013-08-01 00:57:00,63.2,61.8,29.73,SE,132,0.0,0.0,95,0.00,,-RA,0.00,0.00,VWS V14.01,2013-08-01 04:57:00,
2013-08-01 01:00:00,63.1,61.3,29.73,SE,132,0.0,0.0,94,0.00,,OVC041,0.15,0.00,VWS V14.01,2013-08-01 05:00:00,
2013-08-01 01:02:00,63.2,61.8,29.73,SE,132,0.0,0.0,95,0.00,,-RA,0.00,0.00,VWS V14.01,2013-08-01 05:02:00,
2013-08-01 01:07:00,63.2,61.8,29.73,SE,132,0.0,0.0,95,0.00,,-RA,0.00,0.00,VWS V14.01,2013-08-01 05:07:00,
2013-08-01 01:12:00,63.2,61.8,29.73,SE,132,0.0,0.0,95,0.00,,-RA,0.00,0.00,VWS V14.01,2013-08-01 05:12:00,
2013-08-01 01:17:00,63.2,61.8,29.73,SE,132,0.0,0.0,95,0.00,,-RA,0.00,0.00,VWS V14.01,2013-08-01 05:17:00,
2013-08-01 01:22:00,63.2,61.8,29.73,SE,132,0.0,0.0,95,0.00,,,0.00,0.00,VWS V14.01,2013-08-01 05:22:00,
2013-08-01 01:27:00,63.2,61.8,29.73,SE,132,0.0,0.0,95,0.00,,,0.00,0.00,VWS V14.01,2013-08-01 05:27:00,
2013-08-01 01:30:00,63.1,61.7,29.74,SE,132,0.0,0.0,95,0.00,,OVC041,0.00,0.00,VWS V14.01,2013-08-01 05:30:00,
2013-08-01 01:32:00,63.2,61.8,29.73,SE,132,0.0,0.0,95,0.00,,,0.00,0.00,VWS V14.01,2013-08-01 05:32:00,
2013-08-01 01:37:00,63.1,61.7,29.73,SE,132,0.0,0.0,95,0.00,,,0.00,0.00,VWS V14.01,2013-08-01 05:37:00,
2013-08-01 01:42:00,63.1,61.7,29.73,SE,132,0.0,0.0,95,0.00,,,0.00,0.00,VWS V14.01,2013-08-01 05:42:00,
2013-08-01 01:47:00,63.1,61.7,29.73,SE,132,0.0,0.0,95,0.00,,,0.00,0.00,VWS V14.01,2013-08-01 05:47:00,
2013-08-01 01:52:00,62.9,61.5,29.73,SE,132,0.0,0.0,95,0.00,,,0.00,0.00,VWS V14.01,2013-08-01 05:52:00,
2013-08-01 01:57:00,62.9,61.5,29.73,SE,132,0.0,0.0,95,0.00,,,0.00,0.00,VWS V14.01,2013-08-01 05:57:00,
2013-08-01 02:00:00,63.2,61.8,29.73,SE,132,0.0,0.0,95,0.00,,OVC041,0.00,0.00,VWS V14.01,2013-08-01 06:00:00,
2013-08-01 02:02:00,62.7,61.2,29.73,SE,132,0.0,0.0,95,0.00,,,0.00,0.00,VWS V14.01,2013-08-01 06:02:00,
2013-08-01 02:07:00,62.7,61.2,29.73,SE,132,0.0,0.0,95,0.00,,,0.00,0.00,VWS V14.01,2013-08-01 06:07:00,
2013-08-01 02:12:00,62.7,61.2,29.73,SE,132,0.0,0.0,95,0.00,,,0.00,0.00,VWS V14.01,2013-08-01 06:12:00,
2013-08-01 02:17:00,62.7,61.2,29.73,SE,132,0.0,0.0,95,0.00,,,0.00,0.00,VWS V14.01,2013-08-01 06:17:00,
2013-08-01 02:22:00,62.7,61.2,29.73,SE,132,0.0,0.0,95,0.00,,,0.00,0.00,VWS V14.01,2013-08-01 06:22:00,
2013-08-01 02:27:00,62.7,61.2,29.73,SE,132,0.0,0.0,95,0.00,,,0.00,0.00,VWS V14.01,2013-08-01 06:27:00,
2013-08-01 02:30:00,63.2,61.8,29.73,SE,132,0.0,0.0,95,0.00,,OVC041,0.00,0.00,VWS V14.01,2013-08-01 06:30:00,
2013-08-01 02:32:00,62.7,61.2,29.72,SE,132,0.0,0.0,95,0.00,,,0.00,0.00,VWS V14.01,2013-08-01 06:32:00,
2013-08-01 02:37:00,62.6,61.2,29.72,SE,132,0.0,0.0,95,0.00,,,0.00,0.00,VWS V14.01,2013-08-01 06:37:00,
2013-08-01 02:42:00,62.6,61.2,29.72,SE,132,0.0,0.0,95,0.00,,,0.00,0.00,VWS V14.01,2013-08-01 06:42:00,
2013-08-01 02:47:00,62.6,61.2,29.72,SE,132,0.0,0.0,95,0.00,,,0.00,0.00,VWS V14.01,2013-08-01 06:47:00,
2013-08-01 02:52:00,62.4,61.0,29.72,SE,132,0.0,0.0,95,0.00,,,0.00,0.00,VWS V14.01,2013-08-01 06:52:00,
2013-08-01 02:57:00,62.4,61.0,29.72,SE,132,0.0,0.0,95,0.00,,,0.00,0.00,VWS V14.01,2013-08-01 06:57:00,
2013-08-01 03:00:00,62.7,61.2,29.73,SE,132,0.0,0.0,95,0.00,,OVC041,0.00,0.00,VWS V14.01,2013-08-01 07:00:00,
2013-08-01 03:02:00,62.3,60.8,29.71,SE,132,0.0,0.0,95,0.00,,,0.00,0.00,VWS V14.01,2013-08-01 07:02:00,
2013-08-01 03:07:00,62.3,60.8,29.71,SE,132,0.0,0.0,95,0.00,,,0.00,0.00,VWS V14.01,2013-08-01 07:07:00,
2013-08-01 03:12:00,62.1,60.7,29.71,SE,132,0.0,0.0,95,0.00,,,0.00,0.00,VWS V14.01,2013-08-01 07:12:00,
2013-08-01 03:17:00,62.1,60.7,29.71,SE,132,0.0,0.0,95,0.00,,,0.00,0.00,VWS V14.01,2013-08-01 07:17:00,
2013-08-01 03:22:00,62.0,60.6,29.71,SE,132,0.0,0.0,95,0.00,,,0.00,0.00,VWS V14.01,2013-08-01 07:22:00,
2013-08-01 03:27:00,62.0,60.6,29.71,SE,132,0.0,0.0,95,0.00,,,0.00,0.00,VWS V14.01,2013-08-01 07:27:00,
2013-08-01 03:30:00,62.7,61.2,29.72,SE,132,0.0,0.0,95,0.00,,OVC041,0.00,0.00,VWS V14.01,2013-08-01 07:30:00,
2013-08-01 03:32:00,61.8,60.4,29.71,SE,132,0.0,0.0,95,0.00,,,0.00,0.00,VWS V14.01,2013-08-01 07:32:00,
2013-08-01 03:33:00,61.8,60.4,29.71,SE,132,0.0,0.0,95,0.00,,,0.00,0.00,VWS V14.01,2013-08-01 07:33:00,
2013-08-01 03:38:00,61.6,60.2,29.71,SE,132,0.0,0.0,95,0.00,,,0.00,0.00,VWS V14.01,2013-08-01 07:38:00,
2013-08-01 03:43:00,61.6,60.2,29.71,SE,132,0.0,0.0,95,0.00,,,0.00,0.00,VWS V14.01,2013-08-01 07:43:00,
2013-08-01 03:48:00,61.5,60.1,29.71,SE,132,0.0,0.0,95,0.00,,,0.00,0.00,VWS V14.01,2013-08-01 07:48:00,
2013-08-01 03:53:00,61.5,60.1,29.71,SE,132,0.0,0.0,95,0.00,,,0.00,0.00,VWS V14.01,2013-08-01 07:53:00,
2013-08-01 03:58:00,61.3,59.9,29.71,SE,132,0.0,0.0,95,0.00,,,0.00,0.00,VWS V14.01,2013-08-01 07:58:00,
2013-08-01 04:00:00,62.3,60.8,29.71,SE,132,0.0,0.0,95,0.00,,OVC041,0.00,0.00,VWS V14.01,2013-08-01 08:00:00,
2013-08-01 04:03:00,61.3,59.9,29.72,SE,132,0.0,0.0,95,0.00,,,0.00,0.00,VWS V14.01,2013-08-01 08:03:00,
2013-08-01 04:08:00,61.3,60.2,29.72,SE,132,0.0,0.0,96,0.00,,,0.00,0.00,VWS V14.01,2013-08-01 08:08:00,
2013-08-01 04:13:00,61.3,60.2,29.72,SE,132,0.0,0.0,96,0.00,,,0.00,0.00,VWS V14.01,2013-08-01 08:13:00,
2013-08-01 04:18:00,61.5,60.3,29.72,SE,132,0.0,0.0,96,0.00,,,0.00,0.00,VWS V14.01,2013-08-01 08:18:00,
2013-08-01 04:23:00,61.6,60.5,29.72,SE,132,0.0,0.0,96,0.00,,,0.00,0.00,VWS V14.01,2013-08-01 08:23:00,
2013-08-01 04:28:00,61.8,60.7,29.72,SE,132,0.0,0.0,96,0.00,,,0.00,0.00,VWS V14.01,2013-08-01 08:28:00,
2013-08-01 04:30:00,61.8,60.4,29.71,SE,132,0.0,0.0,95,0.00,,OVC041,0.00,0.00,VWS V14.01,2013-08-01 08:30:00,
2013-08-01 04:33:00,62.0,60.8,29.71,SE,139,0.0,0.0,96,0.00,,,0.00,0.00,VWS V14.01,2013-08-01 08:33:00,
2013-08-01 04:39:00,62.1,61.0,29.71,SE,139,0.0,0.0,96,0.00,,,0.00,0.00,VWS V14.01,2013-08-01 08:39:00,
2013-08-01 04:44:00,62.3,61.2,29.71,SE,139,0.0,0.0,96,0.00,,,0.00,0.00,VWS V14.01,2013-08-01 08:44:00,
2013-08-01 04:49:00,62.4,61.2,29.71,SE,139,0.0,0.0,96,0.00,,,0.00,0.00,VWS V14.01,2013-08-01 08:49:00,
2013-08-01 04:54:00,62.6,61.5,29.71,SE,139,0.0,0.0,96,0.00,,,0.00,0.00,VWS V14.01,2013-08-01 08:54:00,
2013-08-01 04:59:00,62.6,61.5,29.71,SE,139,0.0,0.0,96,0.00,,,0.00,0.00,VWS V14.01,2013-08-01 08:59:00,
2013-08-01 05:00:00,61.3,59.9,29.72,SE,132,0.0,0.0,95,0.00,,OVC041,0.00,0.00,VWS V14.01,2013-08-01 09:00:00,
2013-08-01 05:04:00,62.6,61.5,29.71,SE,139,0.0,0.0,96,0.00,,,0.00,0.00,VWS V14.01,2013-08-01 09:04:00,
2013-08-01 05:09:00,62.6,61.5,29.71,SE,139,0.0,0.0,96,0.00,,,0.00,0.00,VWS V14.01,2013-08-01 09:09:00,
2013-08-01 05:14:00,62.6,61.5,29.71,SE,139,0.0,0.0,96,0.00,,,0.00,0.00,VWS V14.01,2013-08-01 09:14:00,
2013-08-01 05:19:00,62.6,61.5,29.71,SE,139,0.0,0.0,96,0.00,,,0.00,0.00,VWS V14.01,2013-08-01 09:19:00,
2013-08-01 05:25:00,62.4,61.2,29.71,SE,139,0.0,0.0,96,0.00,,,0.00,0.00,VWS V14.01,2013-08-01 09:25:00,
2013-08-01 05:30:00,62.4,61.2,29.71,SE,139,0.0,0.0,96,0.00,,,0.00,0.00,VWS V14.01,2013-08-01 09:30:00,
2013-08-01 05:35:00,62.3,61.2,29.71,SE,139,0.0,0.0,96,0.00,,,0.00,0.00,VWS V14.01,2013-08-01 09:35:00,
2013-08-01 05:40:00,62.1,61.0,29.71,SE,139,0.0,0.0,96,0.00,,,0.00,0.00,VWS V14.01,2013-08-01 09:40:00,
2013-08-01 05:45:00,62.0,60.8,29.71,SE,139,0.0,0.0,96,0.00,,,0.00,0.00,VWS V14.01,2013-08-01 09:45:00,
2013-08-01 05:50:00,62.0,60.8,29.72,SE,139,0.0,0.0,96,0.00,,,0.00,0.00,VWS V14.01,2013-08-01 09:50:00,
2013-08-01 05:56:00,61.8,60.7,29.72,SE,139,0.0,0.0,96,0.00,,,0.00,0.00,VWS V14.01,2013-08-01 09:56:00,
2013-08-01 06:00:00,62.6,61.5,29.71,SE,139,0.0,0.0,96,0.00,,OVC041,0.00,0.00,VWS V14.01,2013-08-01 10:00:00,
2013-08-01 06:01:00,61.8,60.7,29.72,SE,139,0.0,0.0,96,0.00,,,0.00,0.00,VWS V14.01,2013-08-01 10:01:00,
2013-08-01 06:06:00,61.6,60.5,29.72,SE,139,0.0,0.0,96,0.00,,,0.00,0.00,VWS V14.01,2013-08-01 10:06:00,
2013-08-01 06:12:00,61.6,60.5,29.72,SE,139,0.0,0.0,96,0.00,,,0.00,0.00,VWS V14.01,2013-08-01 10:12:00,
2013-08-01 06:17:00,61.6,60.5,29.72,SE,139,0.0,0.0,96,0.00,,,0.00,0.00,VWS V14.01,2013-08-01 10:17:00,
2013-08-01 06:22:00,61.6,60.5,29.72,SE,139,0.0,0.0,96,0.00,,,0.00,0.00,VWS V14.01,2013-08-01 10:22:00,
2013-08-01 06:27:00,61.6,60.5,29.72,SE,139,0.0,0.0,96,0.00,,,0.00,0.00,VWS V14.01,2013-08-01 10:27:00,
2013-08-01 06:30:00,62.3,61.2,29.71,SE,139,0.0,0.0,96,0.00,,OVC041,0.00,0.00,VWS V14.01,2013-08-01 10:30:00,
2013-08-01 06:33:00,61.6,60.5,29.72,SE,139,0.0,0.0,96,0.00,,,0.00,0.00,VWS V14.01,2013-08-01 10:33:00,
2013-08-01 06:38:00,61.8,60.9,29.72,SE,139,0.0,0.0,97,0.00,,,0.00,0.00,VWS V14.01,2013-08-01 10:38:00,
2013-08-01 06:43:00,62.0,61.1,29.72,SE,139,0.0,0.0,97,0.00,,,0.00,0.00,VWS V14.01,2013-08-01 10:43:00,
2013-08-01 06:48:00,62.0,61.1,29.72,SE,139,0.0,0.0,97,0.00,,,0.00,5.00,VWS V14.01,2013-08-01 10:48:00,
2013-08-01 06:54:00,62.1,61.2,29.72,SE,139,0.0,0.0,97,0.00,,,0.00,7.00,VWS V14.01,2013-08-01 10:54:00,
2013-08-01 06:59:00,62.1,61.2,29.72,SE,139,0.0,0.0,97,0.00,,,0.00,11.00,VWS V14.01,2013-08-01 10:59:00,
2013-08-01 07:00:00,61.8,60.7,29.72,SE,139,0.0,0.0,96,0.00,,OVC041,0.00,0.00,VWS V14.01,2013-08-01 11:00:00,
2013-08-01 07:04:00,62.1,61.2,29.73,SE,139,0.0,0.0,97,0.00,,,0.00,14.00,VWS V14.01,2013-08-01 11:04:00,
2013-08-01 07:09:00,62.3,61.4,29.73,SE,139,0.0,0.0,97,0.00,,,0.00,19.00,VWS V14.01,2013-08-01 11:09:00,
2013-08-01 07:14:00,62.3,61.4,29.73,SE,139,0.0,0.0,97,0.00,,,0.00,25.00,VWS V14.01,2013-08-01 11:14:00,
2013-08-01 07:19:00,62.3,61.4,29.73,SE,139,0.0,0.0,97,0.00,,,0.00,26.00,VWS V14.01,2013-08-01 11:19:00,
2013-08-01 07:24:00,62.3,61.4,29.73,SE,139,0.0,0.0,97,0.00,,,0.00,30.00,VWS V14.01,2013-08-01 11:24:00,
2013-08-01 07:29:00,62.4,61.5,29.73,SE,139,0.0,0.0,97,0.00,,,0.00,26.00,VWS V14.01,2013-08-01 11:29:00,
2013-08-01 07:30:00,61.6,60.5,29.72,SE,139,0.0,0.0,96,0.00,,OVC041,0.00,0.00,VWS V14.01,2013-08-01 11:30:00,
2013-08-01 07:34:00,62.4,61.5,29.74,SE,139,0.0,0.0,97,0.00,,,0.00,40.00,VWS V14.01,2013-08-01 11:34:00,
2013-08-01 07:39:00,62.4,61.5,29.74,SE,139,0.0,0.0,97,0.00,,,0.00,46.00,VWS V14.01,2013-08-01 11:39:00,
2013-08-01 07:44:00,62.4,61.5,29.74,SE,139,0.0,0.0,97,0.00,,,0.00,46.00,VWS V14.01,2013-08-01 11:44:00,
2013-08-01 07:49:00,62.6,61.7,29.74,SE,139,0.0,0.0,97,0.00,,,0.00,47.00,VWS V14.01,2013-08-01 11:49:00,
2013-08-01 07:54:00,62.6,61.7,29.74,SE,139,0.0,0.0,97,0.00,,,0.00,63.00,VWS V14.01,2013-08-01 11:54:00,
2013-08-01 08:00:00,62.7,61.8,29.74,SE,139,0.0,0.0,97,0.00,,,0.00,83.00,VWS V14.01,2013-08-01 12:00:00,
2013-08-01 08:05:00,62.9,62.0,29.74,SE,139,0.0,0.0,97,0.00,,,0.00,58.00,VWS V14.01,2013-08-01 12:05:00,
2013-08-01 08:10:00,62.9,62.0,29.74,SE,139,0.0,0.0,97,0.00,,,0.00,95.00,VWS V14.01,2013-08-01 12:10:00,
2013-08-01 08:15:00,63.1,62.2,29.74,SE,139,0.0,0.0,97,0.00,,,0.00,84.00,VWS V14.01,2013-08-01 12:15:00,
2013-08-01 08:20:00,63.2,62.3,29.75,SE,139,0.0,0.0,97,0.00,,,0.00,72.00,VWS V14.01,2013-08-01 12:20:00,
2013-08-01 08:26:00,63.4,62.5,29.75,SE,139,0.0,0.0,97,0.00,,,0.00,91.00,VWS V14.01,2013-08-01 12:26:00,
2013-08-01 08:30:00,62.4,61.5,29.74,SE,139,0.0,0.0,97,0.00,,OVC041,0.00,40.00,VWS V14.01,2013-08-01 12:30:00,
2013-08-01 08:31:00,63.5,62.6,29.74,SE,139,0.0,0.0,97,0.00,,,0.00,90.00,VWS V14.01,2013-08-01 12:31:00,
2013-08-01 08:37:00,63.7,62.8,29.74,SE,139,0.0,0.0,97,0.00,,,0.00,77.00,VWS V14.01,2013-08-01 12:37:00,
2013-08-01 08:42:00,63.9,63.0,29.74,SE,139,0.0,0.0,97,0.00,,,0.00,236.00,VWS V14.01,2013-08-01 12:42:00,
2013-08-01 08:47:00,64.0,63.1,29.74,SE,139,0.0,0.0,97,0.00,,,0.00,258.00,VWS V14.01,2013-08-01 12:47:00,
2013-08-01 08:52:00,64.2,63.6,29.74,SE,139,0.0,0.0,98,0.00,,,0.00,81.00,VWS V14.01,2013-08-01 12:52:00,
2013-08-01 08:57:00,64.3,63.7,29.74,SE,139,0.0,0.0,98,0.00,,,0.00,86.00,VWS V14.01,2013-08-01 12:57:00,
2013-08-01 09:00:00,62.7,61.8,29.74,SE,139,0.0,0.0,97,0.00,,OVC041,0.00,70.00,VWS V14.01,2013-08-01 13:00:00,
2013-08-01 09:02:00,64.5,63.9,29.74,SE,139,0.0,0.0,98,0.00,,,0.00,304.00,VWS V14.01,2013-08-01 13:02:00,
2013-08-01 09:07:00,64.7,64.1,29.74,SE,139,0.0,0.0,98,0.00,,,0.00,76.00,VWS V14.01,2013-08-01 13:07:00,
2013-08-01 09:13:00,65.0,64.4,29.74,SE,139,0.0,0.0,98,0.00,,CLR,0.00,253.00,VWS V14.01,2013-08-01 13:13:00,
2013-08-01 09:18:00,65.3,64.7,29.74,SE,139,0.0,0.0,98,0.00,,CLR,0.00,95.00,VWS V14.01,2013-08-01 13:18:00,
2013-08-01 09:24:00,65.5,64.9,29.74,SE,146,0.0,0.0,98,0.00,,CLR,0.00,105.00,VWS V14.01,2013-08-01 13:24:00,
2013-08-01 09:29:00,65.8,65.2,29.74,SE,146,0.0,0.0,98,0.00,,CLR,0.00,209.00,VWS V14.01,2013-08-01 13:29:00,
2013-08-01 09:30:00,63.5,62.6,29.74,SE,139,0.0,0.0,97,0.00,,OVC041,0.00,90.00,VWS V14.01,2013-08-01 13:30:00,
2013-08-01 09:34:00,66.3,65.7,29.74,SE,146,1.0,0.0,98,0.00,,CLR,0.00,427.00,VWS V14.01,2013-08-01 13:34:00,
2013-08-01 09:39:00,66.8,66.2,29.74,SE,146,0.0,0.0,98,0.00,,CLR,0.00,241.00,VWS V14.01,2013-08-01 13:39:00,
2013-08-01 09:45:00,67.1,66.5,29.74,SE,146,0.0,0.0,98,0.00,,CLR,0.00,165.00,VWS V14.01,2013-08-01 13:45:00,
2013-08-01 09:50:00,67.4,66.8,29.74,SE,146,0.0,0.0,98,0.00,,CLR,0.00,206.00,VWS V14.01,2013-08-01 13:50:00,
2013-08-01 09:55:00,67.6,67.0,29.74,SE,146,0.0,0.0,98,0.00,,CLR,0.00,227.00,VWS V14.01,2013-08-01 13:55:00,
2013-08-01 10:00:00,67.8,67.2,29.74,SSE,161,0.0,0.0,98,0.00,,CLR,0.00,185.00,VWS V14.01,2013-08-01 14:00:00,
2013-08-01 10:05:00,68.1,67.5,29.74,SSE,161,0.0,0.0,98,0.00,,CLR,0.00,271.00,VWS V14.01,2013-08-01 14:05:00,
2013-08-01 10:10:00,68.3,67.7,29.74,SSE,161,0.0,0.0,98,0.00,,CLR,0.00,626.00,VWS V14.01,2013-08-01 14:10:00,
2013-08-01 10:15:00,68.4,67.8,29.74,SSE,161,0.0,0.0,98,0.00,,CLR,0.00,181.00,VWS V14.01,2013-08-01 14:15:00,
2013-08-01 10:20:00,68.1,67.2,29.74,SSE,161,0.0,0.0,97,0.00,,CLR,0.00,141.00,VWS V14.01,2013-08-01 14:20:00,
2013-08-01 10:25:00,67.9,66.7,29.74,SSE,154,0.0,0.0,96,0.00,,CLR,0.00,621.00,VWS V14.01,2013-08-01 14:25:00,
2013-08-01 10:30:00,68.6,67.4,29.74,SSE,154,0.0,0.0,96,0.00,,CLR,0.00,642.00,VWS V14.01,2013-08-01 14:30:00,
2013-08-01 10:36:00,68.6,67.1,29.73,SSE,154,0.0,0.0,95,0.00,,CLR,0.00,204.00,VWS V14.01,2013-08-01 14:36:00,
2013-08-01 10:41:00,68.9,67.4,29.73,SSE,154,0.0,0.0,95,0.00,,CLR,0.00,178.00,VWS V14.01,2013-08-01 14:41:00,
2013-08-01 10:46:00,68.4,66.6,29.73,SSE,154,0.0,0.0,94,0.00,,CLR,0.00,295.00,VWS V14.01,2013-08-01 14:46:00,
2013-08-01 10:51:00,69.1,67.0,29.73,SSE,154,0.0,0.0,93,0.00,,CLR,0.00,257.00,VWS V14.01,2013-08-01 14:51:00,
2013-08-01 10:56:00,68.9,66.5,29.73,SSE,154,0.0,0.0,92,0.00,,CLR,0.00,237.00,VWS V14.01,2013-08-01 14:56:00,
2013-08-01 11:00:00,67.8,67.2,29.74,SSE,161,0.0,0.0,98,0.00,,OVC041,0.00,185.00,VWS V14.01,2013-08-01 15:00:00,
2013-08-01 11:01:00,69.9,67.2,29.73,South,184,0.0,0.0,91,0.00,,BKN060,0.00,735.00,VWS V14.01,2013-08-01 15:01:00,
2013-08-01 11:06:00,70.1,66.1,29.73,South,184,0.0,0.0,87,0.00,,BKN060,0.00,816.00,VWS V14.01,2013-08-01 15:06:00,
2013-08-01 11:11:00,70.4,66.0,29.73,South,184,0.0,0.0,86,0.00,,BKN060,0.00,773.00,VWS V14.01,2013-08-01 15:11:00,
2013-08-01 11:17:00,70.8,66.4,29.73,South,184,0.0,0.0,86,0.00,,BKN060,0.00,761.00,VWS V14.01,2013-08-01 15:17:00,
2013-08-01 11:22:00,71.1,66.7,29.73,ENE,60,0.0,0.0,86,0.00,,BKN060,0.00,809.00,VWS V14.01,2013-08-01 15:22:00,
2013-08-01 11:27:00,71.3,65.5,29.73,East,88,0.0,0.0,82,0.00,,BKN060,0.00,847.00,VWS V14.01,2013-08-01 15:27:00,
2013-08-01 11:30:00,68.6,67.4,29.73,SSE,154,0.0,0.0,96,0.00,,OVC041,0.00,642.00,VWS V14.01,2013-08-01 15:30:00,
2013-08-01 11:32:00,71.5,64.7,29.74,SW,220,0.0,0.0,79,0.00,,SCT022,0.00,777.00,VWS V14.01,2013-08-01 15:32:00,
2013-08-01 11:37:00,72.0,64.0,29.74,ESE,118,0.0,0.0,76,0.00,,SCT022,0.00,826.00,VWS V14.01,2013-08-01 15:37:00,
2013-08-01 11:42:00,71.6,64.0,29.74,ESE,119,0.0,0.0,77,0.00,,SCT022,0.00,144.00,VWS V14.01,2013-08-01 15:42:00,
2013-08-01 11:47:00,71.3,64.1,29.74,ESE,119,0.0,0.0,78,0.00,,SCT022,0.00,810.00,VWS V14.01,2013-08-01 15:47:00,
2013-08-01 11:52:00,70.9,64.1,29.74,SSE,148,0.0,0.0,79,0.00,,SCT022,0.00,817.00,VWS V14.01,2013-08-01 15:52:00,
2013-08-01 11:57:00,73.0,65.4,29.74,SSE,148,0.0,0.0,77,0.00,,SCT022,0.00,823.00,VWS V14.01,2013-08-01 15:57:00,
2013-08-01 12:00:00,69.9,67.2,29.73,South,184,0.0,0.0,91,0.00,,OVC041,0.00,735.00,VWS V14.01,2013-08-01 16:00:00,
2013-08-01 12:02:00,74.2,66.5,29.74,SSE,147,0.0,0.0,77,0.00,,SCT070,0.00,884.00,VWS V14.01,2013-08-01 16:02:00,
2013-08-01 12:07:00,74.0,63.2,29.74,WSW,242,0.0,0.0,69,0.00,,SCT070,0.00,204.00,VWS V14.01,2013-08-01 16:07:00,
2013-08-01 12:12:00,73.9,66.2,29.74,WSW,242,0.0,0.0,77,0.00,,SCT070,0.00,861.00,VWS V14.01,2013-08-01 16:12:00,
2013-08-01 12:17:00,73.3,62.5,29.74,ENE,66,0.0,0.0,69,0.00,,SCT070,0.00,213.00,VWS V14.01,2013-08-01 16:17:00,
2013-08-01 12:23:00,74.0,63.6,29.74,ENE,67,0.0,0.0,70,0.00,,SCT070,0.00,867.00,VWS V14.01,2013-08-01 16:23:00,
2013-08-01 12:28:00,74.4,62.7,29.74,WSW,240,1.0,0.0,67,0.00,,SCT070,0.00,882.00,VWS V14.01,2013-08-01 16:28:00,
2013-08-01 12:30:00,71.5,64.7,29.74,SW,220,0.0,0.0,79,0.00,,OVC041,0.00,780.00,VWS V14.01,2013-08-01 16:30:00,
2013-08-01 12:33:00,74.6,62.5,29.74,WSW,241,0.0,0.0,66,0.00,,SCT070,0.00,942.00,VWS V14.01,2013-08-01 16:33:00,
2013-08-01 12:38:00,73.9,60.1,29.74,SSW,197,0.0,0.0,62,0.00,,SCT070,0.00,1005.00,VWS V14.01,2013-08-01 16:38:00,
2013-08-01 12:43:00,73.5,62.3,29.74,WSW,254,0.0,0.0,68,0.00,,SCT070,0.00,153.00,VWS V14.01,2013-08-01 16:43:00,
2013-08-01 12:48:00,73.5,62.3,29.74,South,180,0.0,0.0,68,0.00,,SCT070,0.00,960.00,VWS V14.01,2013-08-01 16:48:00,
2013-08-01 12:53:00,74.6,59.3,29.74,WSW,240,0.0,0.0,59,0.00,,SCT070,0.00,207.00,VWS V14.01,2013-08-01 16:53:00,
2013-08-01 12:58:00,74.4,61.0,29.74,SW,214,0.0,0.0,63,0.00,,SCT070,0.00,288.00,VWS V14.01,2013-08-01 16:58:00,
2013-08-01 13:00:00,74.2,66.5,29.74,SSE,147,0.0,0.0,77,0.00,,OVC041,0.00,874.00,VWS V14.01,2013-08-01 17:00:00,
2013-08-01 13:03:00,72.8,60.8,29.74,SSW,194,0.0,0.0,66,0.00,,SCT070,0.00,153.00,VWS V14.01,2013-08-01 17:03:00,
2013-08-01 13:09:00,73.5,60.2,29.74,SSW,197,0.0,0.0,63,0.00,,SCT070,0.00,1034.00,VWS V14.01,2013-08-01 17:09:00,
2013-08-01 13:14:00,75.3,60.5,29.74,South,190,0.0,0.0,60,0.00,,SCT070,0.00,185.00,VWS V14.01,2013-08-01 17:14:00,
2013-08-01 13:19:00,74.0,61.1,29.74,WNW,284,0.0,0.0,64,0.00,,SCT070,0.00,988.00,VWS V14.01,2013-08-01 17:19:00,
2013-08-01 13:24:00,75.8,60.5,29.74,NE,34,0.0,0.0,59,0.00,,SCT070,0.00,1060.00,VWS V14.01,2013-08-01 17:24:00,
2013-08-01 13:29:00,75.3,60.9,29.74,WNW,286,0.0,0.0,61,0.00,,SCT070,0.00,237.00,VWS V14.01,2013-08-01 17:29:00,
2013-08-01 13:30:00,74.6,62.5,29.74,WSW,250,1.0,0.0,66,0.00,,OVC041,0.00,907.00,VWS V14.01,2013-08-01 17:30:00,
2013-08-01 13:35:00,73.7,60.3,29.73,West,269,0.0,0.0,63,0.00,,SCT070,0.00,322.00,VWS V14.01,2013-08-01 17:35:00,
2013-08-01 13:40:00,75.3,62.3,29.73,SW,229,0.0,0.0,64,0.00,,SCT070,0.00,1037.00,VWS V14.01,2013-08-01 17:40:00,
2013-08-01 13:45:00,74.9,57.7,29.73,SW,227,1.0,0.0,55,0.00,,SCT070,0.00,963.00,VWS V14.01,2013-08-01 17:45:00,
2013-08-01 13:50:00,73.9,59.6,29.73,West,273,1.0,0.0,61,0.00,,SCT070,0.00,267.00,VWS V14.01,2013-08-01 17:50:00,
2013-08-01 13:55:00,74.4,60.5,29.73,South,178,0.0,0.0,62,0.00,,SCT070,0.00,1090.00,VWS V14.01,2013-08-01 17:55:00,
2013-08-01 14:00:00,73.3,60.4,29.74,SSW,198,0.0,0.0,64,0.00,,OVC041,0.00,135.00,VWS V14.01,2013-08-01 18:00:00,
2013-08-01 14:01:00,74.7,60.4,29.73,North,355,0.0,0.0,61,0.00,,SCT070,0.00,276.00,VWS V14.01,2013-08-01 18:01:00,
2013-08-01 14:06:00,76.0,61.1,29.73,NNW,327,0.0,0.0,60,0.00,,SCT070,0.00,1104.00,VWS V14.01,2013-08-01 18:06:00,
2013-08-01 14:11:00,76.1,60.3,29.73,SW,227,1.0,0.0,58,0.00,,SCT070,0.00,156.00,VWS V14.01,2013-08-01 18:11:00,
2013-08-01 14:17:00,76.0,61.1,29.74,SW,230,0.0,0.0,60,0.00,,SCT070,0.00,1058.00,VWS V14.01,2013-08-01 18:17:00,
2013-08-01 14:22:00,76.3,61.9,29.74,SW,233,1.0,0.0,61,0.00,,SCT070,0.00,294.00,VWS V14.01,2013-08-01 18:22:00,
2013-08-01 14:27:00,75.6,59.8,29.74,ENE,66,0.0,0.0,58,0.00,,SCT070,0.00,292.00,VWS V14.01,2013-08-01 18:27:00,
2013-08-01 14:30:00,74.4,58.7,29.73,West,271,0.0,0.0,58,0.00,,OVC041,0.00,322.00,VWS V14.01,2013-08-01 18:30:00,
2013-08-01 14:32:00,75.1,60.3,29.73,SW,229,0.0,0.0,60,0.00,,SCT070,0.00,1014.00,VWS V14.01,2013-08-01 18:32:00,
2013-08-01 14:37:00,76.1,60.8,29.73,East,92,0.0,0.0,59,0.00,,SCT070,0.00,1063.00,VWS V14.01,2013-08-01 18:37:00,
2013-08-01 14:42:00,75.3,60.5,29.73,NNE,15,0.0,0.0,60,0.00,,SCT070,0.00,204.00,VWS V14.01,2013-08-01 18:42:00,
2013-08-01 14:47:00,74.4,61.0,29.74,NNE,15,0.0,0.0,63,0.00,,SCT070,0.00,949.00,VWS V14.01,2013-08-01 18:47:00,
2013-08-01 14:52:00,76.1,61.2,29.74,NNE,14,0.0,0.0,60,0.00,,SCT070,0.00,956.00,VWS V14.01,2013-08-01 18:52:00,
2013-08-01 14:57:00,74.9,57.2,29.74,NNE,21,0.0,0.0,54,0.00,,SCT070,0.00,141.00,VWS V14.01,2013-08-01 18:57:00,
2013-08-01 15:00:00,74.7,59.9,29.73,North,355,0.0,0.0,60,0.00,,OVC041,0.00,276.00,VWS V14.01,2013-08-01 19:00:00,
2013-08-01 15:03:00,75.8,59.0,29.74,SSE,167,0.0,0.0,56,0.00,,SCT070,0.00,995.00,VWS V14.01,2013-08-01 19:03:00,
2013-08-01 15:08:00,76.0,58.2,29.74,ESE,123,0.0,0.0,54,0.00,,SCT070,0.00,171.00,VWS V14.01,2013-08-01 19:08:00,
2013-08-01 15:13:00,75.4,58.6,29.74,SSE,165,0.0,0.0,56,0.00,,SCT070,0.00,991.00,VWS V14.01,2013-08-01 19:13:00,
2013-08-01 15:18:00,76.1,58.8,29.74,NNE,30,0.0,0.0,55,0.00,,SCT070,0.00,206.00,VWS V14.01,2013-08-01 19:18:00,
2013-08-01 15:24:00,75.4,60.1,29.74,NW,323,0.0,0.0,59,0.00,,SCT070,0.00,896.00,VWS V14.01,2013-08-01 19:24:00,
2013-08-01 15:29:00,76.5,55.9,29.74,North,5,1.0,0.0,49,0.00,,SCT070,0.00,919.00,VWS V14.01,2013-08-01 19:29:00,
2013-08-01 15:30:00,75.1,61.2,29.73,SW,229,0.0,0.0,62,0.00,,OVC041,0.00,1014.00,VWS V14.01,2013-08-01 19:30:00,
2013-08-01 15:34:00,76.1,58.8,29.74,North,355,0.0,0.0,55,0.00,,SCT070,0.00,181.00,VWS V14.01,2013-08-01 19:34:00,
2013-08-01 15:40:00,73.9,57.2,29.74,NNE,28,0.0,0.0,56,0.00,,SCT070,0.00,220.00,VWS V14.01,2013-08-01 19:40:00,
2013-08-01 15:45:00,72.8,57.2,29.74,NE,54,0.0,0.0,58,0.00,,SCT070,0.00,213.00,VWS V14.01,2013-08-01 19:45:00,
2013-08-01 15:50:00,72.5,59.2,29.74,NE,54,0.0,0.0,63,0.00,,SCT070,0.00,151.00,VWS V14.01,2013-08-01 19:50:00,
2013-08-01 15:55:00,73.2,58.5,29.74,West,276,0.0,0.0,60,0.00,,SCT070,0.00,178.00,VWS V14.01,2013-08-01 19:55:00,
2013-08-01 16:00:00,73.3,57.7,29.74,North,11,0.0,0.0,58,0.00,,SCT070,0.00,165.00,VWS V14.01,2013-08-01 20:00:00,
2013-08-01 16:06:00,73.9,58.2,29.74,NNE,19,0.0,0.0,58,0.00,,SCT070,0.00,810.00,VWS V14.01,2013-08-01 20:06:00,
2013-08-01 16:12:00,74.6,57.4,29.74,NNE,22,0.0,0.0,55,0.00,,SCT070,0.00,803.00,VWS V14.01,2013-08-01 20:12:00,
2013-08-01 16:17:00,73.9,58.2,29.74,North,355,0.0,0.0,58,0.00,,SCT070,0.00,772.00,VWS V14.01,2013-08-01 20:17:00,
2013-08-01 16:22:00,74.9,59.6,29.74,SSE,165,0.0,0.0,59,0.00,,SCT070,0.00,763.00,VWS V14.01,2013-08-01 20:22:00,
2013-08-01 16:27:00,74.9,58.2,29.74,NNW,335,0.0,0.0,56,0.00,,SCT070,0.00,772.00,VWS V14.01,2013-08-01 20:27:00,
2013-08-01 16:30:00,76.7,57.2,29.74,NNW,331,1.0,0.0,51,0.00,,OVC041,0.00,983.00,VWS V14.01,2013-08-01 20:30:00,
2013-08-01 16:32:00,75.4,57.1,29.74,East,89,0.0,0.0,53,0.00,,SCT070,0.00,724.00,VWS V14.01,2013-08-01 20:32:00,
2013-08-01 16:37:00,75.8,57.5,29.74,East,89,0.0,0.0,53,0.00,,CLR,0.00,708.00,VWS V14.01,2013-08-01 20:37:00,
2013-08-01 16:40:00,75.8,58.5,29.74,NNW,328,3.0,0.0,55,0.00,,CLR,0.00,703.00,VWS V14.01,2013-08-01 20:40:00,
2013-08-01 16:46:00,75.6,56.8,29.73,North,5,0.0,0.0,52,0.00,,CLR,0.00,689.00,VWS V14.01,2013-08-01 20:46:00,
2013-08-01 16:51:00,76.0,57.7,29.73,SW,236,0.0,0.0,53,0.00,,CLR,0.00,679.00,VWS V14.01,2013-08-01 20:51:00,
2013-08-01 16:56:00,76.0,55.5,29.73,West,275,0.0,0.0,49,0.00,,CLR,0.00,666.00,VWS V14.01,2013-08-01 20:56:00,
2013-08-01 17:00:00,73.2,59.0,29.74,North,11,0.0,0.0,61,0.00,,OVC041,0.00,165.00,VWS V14.01,2013-08-01 21:00:00,
2013-08-01 17:01:00,75.4,58.1,29.74,West,275,0.0,0.0,55,0.00,,CLR,0.00,652.00,VWS V14.01,2013-08-01 21:01:00,
2013-08-01 17:06:00,75.6,56.2,29.74,NE,46,0.0,0.0,51,0.00,,CLR,0.00,638.00,VWS V14.01,2013-08-01 21:06:00,
2013-08-01 17:12:00,75.4,56.6,29.74,SSE,165,0.0,0.0,52,0.00,,CLR,0.00,624.00,VWS V14.01,2013-08-01 21:12:00,
2013-08-01 17:17:00,75.3,56.5,29.73,SE,131,0.0,0.0,52,0.00,,CLR,0.00,608.00,VWS V14.01,2013-08-01 21:17:00,
2013-08-01 17:22:00,75.1,56.3,29.73,WSW,248,0.0,0.0,52,0.00,,CLR,0.00,596.00,VWS V14.01,2013-08-01 21:22:00,
2013-08-01 17:27:00,74.9,56.6,29.73,ESE,120,0.0,0.0,53,0.00,,CLR,0.00,584.00,VWS V14.01,2013-08-01 21:27:00,
2013-08-01 17:30:00,75.3,57.0,29.74,East,89,0.0,0.0,53,0.00,,OVC041,0.00,724.00,VWS V14.01,2013-08-01 21:30:00,
2013-08-01 17:32:00,74.9,55.0,29.73,ESE,120,0.0,0.0,50,0.00,,CLR,0.00,566.00,VWS V14.01,2013-08-01 21:32:00,
2013-08-01 17:37:00,74.9,57.7,29.73,North,11,0.0,0.0,55,0.00,,CLR,0.00,555.00,VWS V14.01,2013-08-01 21:37:00,
2013-08-01 17:42:00,74.2,56.0,29.73,SW,224,0.0,0.0,53,0.00,,CLR,0.00,538.00,VWS V14.01,2013-08-01 21:42:00,
2013-08-01 17:47:00,74.0,55.3,29.73,NE,49,0.0,0.0,52,0.00,,CLR,0.00,522.00,VWS V14.01,2013-08-01 21:47:00,
2013-08-01 17:52:00,73.5,56.4,29.73,NNW,329,0.0,0.0,55,0.00,,CLR,0.00,504.00,VWS V14.01,2013-08-01 21:52:00,
2013-08-01 17:57:00,73.3,54.1,29.73,North,350,0.0,0.0,51,0.00,,CLR,0.00,478.00,VWS V14.01,2013-08-01 21:57:00,
2013-08-01 18:00:00,75.4,58.1,29.74,West,275,0.0,0.0,55,0.00,,OVC041,0.00,650.00,VWS V14.01,2013-08-01 22:00:00,
2013-08-01 18:02:00,73.2,55.1,29.73,NW,309,0.0,0.0,53,0.00,,CLR,0.00,105.00,VWS V14.01,2013-08-01 22:02:00,
2013-08-01 18:07:00,72.3,55.7,29.73,SSW,213,0.0,0.0,56,0.00,,CLR,0.00,46.00,VWS V14.01,2013-08-01 22:07:00,
2013-08-01 18:13:00,71.8,55.8,29.73,East,80,0.0,0.0,57,0.00,,CLR,0.00,137.00,VWS V14.01,2013-08-01 22:13:00,
2013-08-01 18:18:00,71.8,55.3,29.73,East,80,0.0,0.0,56,0.00,,CLR,0.00,67.00,VWS V14.01,2013-08-01 22:18:00,
2013-08-01 18:23:00,71.8,55.3,29.73,NE,41,0.0,0.0,56,0.00,,CLR,0.00,44.00,VWS V14.01,2013-08-01 22:23:00,
2013-08-01 18:28:00,71.6,55.1,29.73,ENE,63,0.0,0.0,56,0.00,,CLR,0.00,42.00,VWS V14.01,2013-08-01 22:28:00,
2013-08-01 18:30:00,74.9,55.0,29.73,ESE,120,1.0,0.0,50,0.00,,OVC041,0.00,570.00,VWS V14.01,2013-08-01 22:30:00,
2013-08-01 18:33:00,71.5,55.5,29.73,NE,53,0.0,0.0,57,0.00,,CLR,0.00,46.00,VWS V14.01,2013-08-01 22:33:00,
2013-08-01 18:38:00,71.3,55.3,29.73,ESE,111,0.0,0.0,57,0.00,,CLR,0.00,40.00,VWS V14.01,2013-08-01 22:38:00,
2013-08-01 18:43:00,71.1,54.6,29.73,ESE,111,0.0,0.0,56,0.00,,CLR,0.00,54.00,VWS V14.01,2013-08-01 22:43:00,
2013-08-01 18:48:00,70.8,55.8,29.73,ESE,111,0.0,0.0,59,0.00,,CLR,0.00,39.00,VWS V14.01,2013-08-01 22:48:00,
2013-08-01 18:53:00,70.8,54.8,29.73,ESE,111,0.0,0.0,57,0.00,,CLR,0.00,37.00,VWS V14.01,2013-08-01 22:53:00,
2013-08-01 18:58:00,70.6,55.1,29.73,ESE,111,0.0,0.0,58,0.00,,CLR,0.00,37.00,VWS V14.01,2013-08-01 22:58:00,
2013-08-01 19:00:00,73.2,55.1,29.73,NW,309,0.0,0.0,53,0.00,,OVC041,0.00,93.00,VWS V14.01,2013-08-01 23:00:00,
2013-08-01 19:03:00,70.6,55.1,29.72,ESE,111,0.0,0.0,58,0.00,,CLR,0.00,37.00,VWS V14.01,2013-08-01 23:03:00,
2013-08-01 19:08:00,70.4,54.9,29.72,ESE,111,0.0,0.0,58,0.00,,CLR,0.00,39.00,VWS V14.01,2013-08-01 23:08:00,
2013-08-01 19:13:00,70.1,56.0,29.72,ESE,111,0.0,0.0,61,0.00,,CLR,0.00,35.00,VWS V14.01,2013-08-01 23:13:00,
2013-08-01 19:19:00,69.8,57.1,29.72,East,82,0.0,0.0,64,0.00,,CLR,0.00,32.00,VWS V14.01,2013-08-01 23:19:00,
2013-08-01 19:24:00,69.8,55.8,29.72,East,82,0.0,0.0,61,0.00,,CLR,0.00,30.00,VWS V14.01,2013-08-01 23:24:00,
2013-08-01 19:29:00,69.8,55.8,29.72,East,82,0.0,0.0,61,0.00,,CLR,0.00,28.00,VWS V14.01,2013-08-01 23:29:00,
2013-08-01 19:30:00,71.5,55.0,29.73,NE,53,0.0,0.0,56,0.00,,OVC041,0.00,42.00,VWS V14.01,2013-08-01 23:30:00,
2013-08-01 19:34:00,69.9,55.8,29.72,East,82,0.0,0.0,61,0.00,,CLR,0.00,26.00,VWS V14.01,2013-08-01 23:34:00,
2013-08-01 19:39:00,69.9,56.3,29.72,East,82,0.0,0.0,62,0.00,,CLR,0.00,25.00,VWS V14.01,2013-08-01 23:39:00,
2013-08-01 19:44:00,69.8,57.1,29.72,East,83,0.0,0.0,64,0.00,,CLR,0.00,23.00,VWS V14.01,2013-08-01 23:44:00,
2013-08-01 19:49:00,69.8,56.7,29.72,East,83,0.0,0.0,63,0.00,,CLR,0.00,21.00,VWS V14.01,2013-08-01 23:49:00,
2013-08-01 19:54:00,69.6,56.0,29.72,East,83,0.0,0.0,62,0.00,,CLR,0.00,21.00,VWS V14.01,2013-08-01 23:54:00,
2013-08-01 19:59:00,69.4,56.3,29.72,East,83,0.0,0.0,63,0.00,,CLR,0.00,19.00,VWS V14.01,2013-08-01 23:59:00,
2013-08-01 20:00:00,70.6,55.1,29.72,ESE,111,0.0,0.0,58,0.00,,OVC041,0.00,40.00,VWS V14.01,2013-08-02 00:00:00,
2013-08-01 20:04:00,69.4,56.3,29.72,East,83,0.0,0.0,63,0.00,,CLR,0.00,18.00,VWS V14.01,2013-08-02 00:04:00,
2013-08-01 20:09:00,69.3,57.0,29.72,East,83,0.0,0.0,65,0.00,,CLR,0.00,16.00,VWS V14.01,2013-08-02 00:09:00,
2013-08-01 20:14:00,69.1,56.8,29.72,East,83,0.0,0.0,65,0.00,,CLR,0.00,16.00,VWS V14.01,2013-08-02 00:14:00,
2013-08-01 20:19:00,68.9,57.1,29.72,East,83,0.0,0.0,66,0.00,,CLR,0.00,14.00,VWS V14.01,2013-08-02 00:19:00,
2013-08-01 20:24:00,68.8,57.0,29.72,East,83,0.0,0.0,66,0.00,,CLR,0.00,12.00,VWS V14.01,2013-08-02 00:24:00,
2013-08-01 20:29:00,68.4,56.6,29.72,East,83,0.0,0.0,66,0.00,,CLR,0.00,12.00,VWS V14.01,2013-08-02 00:29:00,
2013-08-01 20:30:00,69.9,55.8,29.72,East,82,0.0,0.0,61,0.00,,OVC041,0.00,28.00,VWS V14.01,2013-08-02 00:30:00,
2013-08-01 20:34:00,68.3,56.9,29.72,East,83,0.0,0.0,67,0.00,,CLR,0.00,11.00,VWS V14.01,2013-08-02 00:34:00,
2013-08-01 20:39:00,67.9,57.0,29.72,East,83,0.0,0.0,68,0.00,,CLR,0.00,9.00,VWS V14.01,2013-08-02 00:39:00,
2013-08-01 20:44:00,67.8,57.3,29.72,East,83,0.0,0.0,69,0.00,,CLR,0.00,7.00,VWS V14.01,2013-08-02 00:44:00,
2013-08-01 20:50:00,67.4,57.3,29.73,East,83,0.0,0.0,70,0.00,,CLR,0.00,5.00,VWS V14.01,2013-08-02 00:50:00,
2013-08-01 20:55:00,66.9,56.8,29.73,East,83,0.0,0.0,70,0.00,,CLR,0.00,5.00,VWS V14.01,2013-08-02 00:55:00,
2013-08-01 21:00:00,66.8,56.3,29.73,East,83,0.0,0.0,69,0.00,,CLR,0.00,0.00,VWS V14.01,2013-08-02 01:00:00,
2013-08-01 21:05:00,66.4,55.9,29.73,East,83,0.0,0.0,69,0.00,,CLR,0.00,0.00,VWS V14.01,2013-08-02 01:05:00,
2013-08-01 21:10:00,66.1,56.0,29.73,East,83,0.0,0.0,70,0.00,,CLR,0.00,0.00,VWS V14.01,2013-08-02 01:10:00,
2013-08-01 21:15:00,65.8,56.2,29.73,East,83,0.0,0.0,71,0.00,,CLR,0.00,0.00,VWS V14.01,2013-08-02 01:15:00,
2013-08-01 21:21:00,65.3,56.0,29.73,East,83,0.0,0.0,72,0.00,,CLR,0.00,0.00,VWS V14.01,2013-08-02 01:21:00,
2013-08-01 21:26:00,65.0,55.8,29.73,East,83,0.0,0.0,72,0.00,,CLR,0.00,0.00,VWS V14.01,2013-08-02 01:26:00,
2013-08-01 21:30:00,68.4,57.0,29.72,East,83,0.0,0.0,67,0.00,,OVC041,0.00,11.00,VWS V14.01,2013-08-02 01:30:00,
2013-08-01 21:31:00,64.7,55.5,29.73,East,83,0.0,0.0,72,0.00,,CLR,0.00,0.00,VWS V14.01,2013-08-02 01:31:00,
2013-08-01 21:37:00,64.5,55.7,29.73,East,83,0.0,0.0,73,0.00,,CLR,0.00,0.00,VWS V14.01,2013-08-02 01:37:00,
2013-08-01 21:42:00,64.0,55.6,29.73,East,83,0.0,0.0,74,0.00,,CLR,0.00,0.00,VWS V14.01,2013-08-02 01:42:00,
2013-08-01 21:47:00,63.7,55.3,29.74,East,83,0.0,0.0,74,0.00,,CLR,0.00,0.00,VWS V14.01,2013-08-02 01:47:00,
2013-08-01 21:52:00,63.2,55.2,29.74,East,83,0.0,0.0,75,0.00,,CLR,0.00,0.00,VWS V14.01,2013-08-02 01:52:00,
2013-08-01 21:57:00,62.9,54.9,29.74,East,83,0.0,0.0,75,0.00,,CLR,0.00,0.00,VWS V14.01,2013-08-02 01:57:00,
2013-08-01 22:00:00,66.6,56.1,29.73,East,83,0.0,0.0,69,0.00,,OVC041,0.00,0.00,VWS V14.01,2013-08-02 02:00:00,
2013-08-01 22:02:00,62.6,54.9,29.74,East,83,0.0,0.0,76,0.00,,CLR,0.00,0.00,VWS V14.01,2013-08-02 02:02:00,
2013-08-01 22:07:00,62.3,55.0,29.74,East,83,0.0,0.0,77,0.00,,CLR,0.00,0.00,VWS V14.01,2013-08-02 02:07:00,
2013-08-01 22:12:00,62.0,54.7,29.74,East,83,0.0,0.0,77,0.00,,CLR,0.00,0.00,VWS V14.01,2013-08-02 02:12:00,
2013-08-01 22:17:00,61.8,54.9,29.74,East,83,0.0,0.0,78,0.00,,CLR,0.00,0.00,VWS V14.01,2013-08-02 02:17:00,
2013-08-01 22:22:00,61.5,54.6,29.74,East,83,0.0,0.0,78,0.00,,CLR,0.00,0.00,VWS V14.01,2013-08-02 02:22:00,
2013-08-01 22:27:00,61.2,54.6,29.74,East,83,0.0,0.0,79,0.00,,CLR,0.00,0.00,VWS V14.01,2013-08-02 02:27:00,
2013-08-01 22:30:00,64.7,55.5,29.73,East,83,0.0,0.0,72,0.00,,OVC041,0.00,0.00,VWS V14.01,2013-08-02 02:30:00,
2013-08-01 22:32:00,61.0,54.5,29.73,East,83,0.0,0.0,79,0.00,,CLR,0.00,0.00,VWS V14.01,2013-08-02 02:32:00,
2013-08-01 22:37:00,60.7,54.2,29.73,East,83,0.0,0.0,79,0.00,,CLR,0.00,0.00,VWS V14.01,2013-08-02 02:37:00,
2013-08-01 22:42:00,60.5,54.0,29.73,East,83,0.0,0.0,79,0.00,,CLR,0.00,0.00,VWS V14.01,2013-08-02 02:42:00,
2013-08-01 22:47:00,60.4,53.9,29.74,East,83,0.0,0.0,79,0.00,,CLR,0.00,0.00,VWS V14.01,2013-08-02 02:47:00,
2013-08-01 22:52:00,60.2,54.0,29.74,East,83,0.0,0.0,80,0.00,,CLR,0.00,0.00,VWS V14.01,2013-08-02 02:52:00,
2013-08-01 22:57:00,60.1,53.9,29.74,East,83,0.0,0.0,80,0.00,,CLR,0.00,0.00,VWS V14.01,2013-08-02 02:57:00,
2013-08-01 23:00:00,62.6,54.9,29.74,East,83,0.0,0.0,76,0.00,,OVC041,0.00,0.00,VWS V14.01,2013-08-02 03:00:00,
2013-08-01 23:02:00,59.9,53.7,29.74,East,83,0.0,0.0,80,0.00,,CLR,0.00,0.00,VWS V14.01,2013-08-02 03:02:00,
2013-08-01 23:07:00,59.6,53.4,29.74,East,83,0.0,0.0,80,0.00,,CLR,0.00,0.00,VWS V14.01,2013-08-02 03:07:00,
2013-08-01 23:12:00,59.5,53.7,29.74,East,83,0.0,0.0,81,0.00,,CLR,0.00,0.00,VWS V14.01,2013-08-02 03:12:00,
2013-08-01 23:17:00,59.3,53.5,29.74,East,83,0.0,0.0,81,0.00,,CLR,0.00,0.00,VWS V14.01,2013-08-02 03:17:00,
2013-08-01 23:22:00,59.3,53.8,29.74,East,83,0.0,0.0,82,0.00,,CLR,0.00,0.00,VWS V14.01,2013-08-02 03:22:00,
2013-08-01 23:27:00,59.2,53.7,29.74,East,83,0.0,0.0,82,0.00,,CLR,0.00,0.00,VWS V14.01,2013-08-02 03:27:00,
2013-08-01 23:30:00,61.0,54.5,29.73,East,83,0.0,0.0,79,0.00,,OVC041,0.00,0.00,VWS V14.01,2013-08-02 03:30:00,
2013-08-01 23:33:00,58.9,53.4,29.74,East,83,0.0,0.0,82,0.00,,CLR,0.00,0.00,VWS V14.01,2013-08-02 03:33:00,
2013-08-01 23:38:00,58.9,53.4,29.74,East,83,0.0,0.0,82,0.00,,CLR,0.00,0.00,VWS V14.01,2013-08-02 03:38:00,
2013-08-01 23:43:00,58.7,53.2,29.74,East,83,0.0,0.0,82,0.00,,CLR,0.00,0.00,VWS V14.01,2013-08-02 03:43:00,
2013-08-01 23:48:00,58.6,53.1,29.74,East,83,0.0,0.0,82,0.00,,CLR,0.00,0.00,VWS V14.01,2013-08-02 03:48:00,
2013-08-01 23:53:00,58.4,52.9,29.74,East,83,0.0,0.0,82,0.00,,CLR,0.00,0.00,VWS V14.01,2013-08-02 03:53:00,
2013-08-01 23:58:00,58.4,53.3,29.74,East,83,0.0,0.0,83,0.00,,CLR,0.00,0.00,VWS V14.01,2013-08-02 03:58:00,